울란바타르, Mongolia

2:56 PM ULAT on February 23, 2017 (GMT +0800)
Buyant-Ukhaa | | Change Station

Elev 4364 ft 47.84 °N, 106.77 °E | Updated 26 minutes ago

맑음
맑음
18 °F
Feels Like 8 °F
N
7
바람 Variable 바람 from 서남서

오늘
High -- | Low -- °F
--% Chance of Precip.
어제
High -- | Low -- °F
Precip. -- 인치
기압 30.15 인치
가시도 -9999.0 마일
구름
풍속냉각지수 8 °F
이슬점 7 °F
습도 63%
Rainfall 0.01 인치
Snow Depth Not available.
7:45 AM 6:27 PM
그믐달, 12% visible
METAR ZMUB 230630Z 25003MPS 200V280 CAVOK M08/M14 Q1021 NOSIG RMK QFE658.1 61
기압 30.15 인치
가시도 -9999.0 마일
구름
풍속냉각지수 8 °F
이슬점 7 °F
습도 63%
Rainfall 0.01 인치
Snow Depth Not available.
7:45 AM 6:27 PM
그믐달, 12% visible
METAR ZMUB 230630Z 25003MPS 200V280 CAVOK M08/M14 Q1021 NOSIG RMK QFE658.1 61

Get Your Daily Forecast Email!

Thanks for signing up!

Be on the lookout for a verification email in your inbox.

You'll start receiving the daily forecast at 8 AM.

×

10-Day Weather Forecast

No radar image for this location.
×

Almanac

천문

Feb. 23, 2017 Rise Set
Actual Time
Civil Twilight
Nautical Twilight
Astronomical Twilight
Moon
Length Of Visible Light
낮 길이
Tomorrow will be .
, % of the Moon is Illuminated

Today's Extremes

Country Highs Country Lows

Community

WunderPhotos

Upload Photos

1,962,540 photos uploaded!

WunderBlog® & News

Nearby

에어 품질

  에어 품질 AQ Index Pollutant
Not available.

Snow Depth

Station Depth Elevation

Earthquake Activity

City Distance Mag. Time & Date
Minimum magnitude displayed is 2.5.

Coastal Water Temperatures

장소 기온

Stations

Nearby Weather Stations

Station Location Temp 풍속냉각지수 이슬점 습도 바람 Precip. Elev 업데이트 시각 Type